Time;durP1;ratioP1;P1;durP2;ratioP2;P2;SDS_P1;SDS_P2;PMS_P1;PMS_P2;Temp;Humidity;BMP_temperature;BMP_pressure;BME280_temperature;BME280_humidity;BME280_pressure;Samples;Min_cycle;Max_cycle;Signal;HPM_P1;HPM_P2
2021/04/11 00:00:34;;;;;;;41.25;27.45;;;;;;;13.62;52.58;72091.72;5021441;28;20018;-91
2021/04/11 00:03:03;;;;;;;42.67;29.48;;;;;;;12.75;53.83;71989.25;5028099;28;20038;-90
2021/04/11 00:05:33;;;;;;;49.47;29.63;;;;;;;13.56;53.10;72082.38;5002879;28;20032;-86
2021/04/11 00:07:59;;;;;;;;;;;;;;;13.55;53.15;72084.53;4992195;28;20368;-84
2021/04/11 00:10:32;;;;;;;51.05;30.95;;;;;;;13.02;53.82;72022.44;4992256;28;20429;-85
2021/04/11 00:13:00;;;;;;;51.28;33.28;;;;;;;13.61;52.21;72090.53;4992867;28;20034;-86
2021/04/11 00:15:29;;;;;;;39.47;27.63;;;;;;;13.65;51.80;72095.28;4989131;28;20398;-85
2021/04/11 00:17:56;;;;;;;44.50;29.17;;;;;;;11.82;51.19;71884.63;4991075;28;20034;-86
2021/04/11 00:20:23;;;;;;;43.95;30.55;;;;;;;12.59;50.62;71973.50;4989748;28;20081;-85
2021/04/11 00:22:51;;;;;;;43.60;30.08;;;;;;;13.77;49.68;72109.00;5011356;28;20108;-85
2021/04/11 00:25:23;;;;;;;43.58;29.13;;;;;;;13.38;48.28;72064.22;4997178;28;20144;-86
2021/04/11 00:27:53;;;;;;;48.13;28.48;;;;;;;11.54;48.72;71853.03;5005905;28;20026;-86
2021/04/11 00:30:25;;;;;;;51.20;28.42;;;;;;;12.08;46.07;71915.06;5014145;28;20032;-85
2021/04/11 00:33:17;;;;;;;;;;;;;;;;;;;;;
2021/04/11 00:35:44;;;;;;;43.67;27.63;;;;;;;14.06;43.78;72142.47;5014559;28;20025;-94
2021/04/11 00:38:11;;;;;;;39.95;25.88;;;;;;;14.30;45.25;72167.16;5001025;28;20116;-89
2021/04/11 00:40:38;;;;;;;35.17;26.10;;;;;;;14.03;44.61;72139.47;5008042;28;20061;-86
2021/04/11 00:43:10;;;;;;;35.33;25.55;;;;;;;14.48;45.71;72185.91;4989624;28;20022;-88
2021/04/11 00:45:58;;;;;;;45.47;27.95;;;;;;;14.45;45.24;72187.25;4995245;28;20037;-90
2021/04/11 00:48:27;;;;;;;43.67;25.80;;;;;;;14.53;44.81;72196.81;4979797;28;20045;-87
2021/04/11 00:50:59;;;;;;;42.58;28.05;;;;;;;14.62;44.76;72207.56;4996060;28;20030;-91
2021/04/11 00:53:29;;;;;;;38.67;26.52;;;;;;;14.86;43.78;72234.50;5007800;28;20037;-93
2021/04/11 00:55:56;;;;;;;34.47;26.83;;;;;;;14.89;43.72;72238.69;4984028;28;20038;-89
2021/04/11 00:58:40;;;;;;;47.40;27.33;;;;;;;14.76;44.19;72223.13;4997106;28;20014;-91
2021/04/11 01:01:34;;;;;;;39.70;27.70;;;;;;;14.68;44.00;72213.56;5030776;28;20029;-96
2021/04/11 01:04:01;;;;;;;34.85;26.77;;;;;;;14.53;43.67;72196.81;5014214;28;20091;-95
2021/04/11 01:06:34;;;;;;;44.47;29.35;;;;;;;14.94;43.13;72240.69;5002672;28;20053;-93
2021/04/11 01:09:08;;;;;;;38.53;27.17;;;;;;;14.80;43.31;72225.13;4988258;28;20034;-90
2021/04/11 01:11:36;;;;;;;42.17;26.77;;;;;;;15.24;43.73;72278.09;4994278;28;20088;-93
2021/04/11 01:14:08;;;;;;;47.40;30.50;;;;;;;15.06;45.27;72252.25;4999628;28;20034;-93
2021/04/11 01:16:37;;;;;;;55.97;33.28;;;;;;;14.68;48.10;72210.78;5009587;28;20106;-91
2021/04/11 01:19:09;;;;;;;43.08;31.17;;;;;;;15.03;46.32;72251.44;5013843;28;20022;-93
2021/04/11 01:21:58;;;;;;;43.85;29.77;;;;;;;15.21;45.98;72274.53;5017704;28;20022;-94
2021/04/11 01:24:48;;;;;;;43.63;27.60;;;;;;;15.23;41.41;72274.75;5017970;28;20073;-94
2021/04/11 01:27:26;;;;;;;45.33;31.63;;;;;;;14.76;47.00;72223.13;5015601;28;20025;-92
2021/04/11 01:29:58;;;;;;;44.08;31.67;;;;;;;14.78;46.96;72226.13;4999030;28;20034;-93
2021/04/11 01:32:27;;;;;;;42.45;28.85;;;;;;;14.49;46.09;72192.03;4991849;28;20019;-94
2021/04/11 01:34:59;;;;;;;39.88;29.95;;;;;;;15.29;46.01;72284.09;4995738;28;20022;-94
2021/04/11 01:37:28;;;;;;;41.65;29.17;;;;;;;13.46;45.93;72073.19;4979279;28;20022;-93
2021/04/11 01:39:55;;;;;;;44.28;30.27;;;;;;;14.82;43.32;72224.78;4985413;28;20038;-94
2021/04/11 01:42:23;;;;;;;33.30;24.15;;;;;;;13.63;40.52;72090.13;4993875;28;20066;-96
2021/04/11 01:44:51;;;;;;;42.78;26.65;;;;;;;13.81;40.43;72113.81;4975179;28;20041;-94
2021/04/11 01:47:21;;;;;;;37.33;25.60;;;;;;;14.79;38.13;72223.94;5006890;28;20105;-95
2021/04/11 01:49:48;;;;;;;36.95;23.90;;;;;;;14.87;36.79;72236.25;4990971;28;20031;-92
2021/04/11 01:52:30;;;;;;;30.25;22.38;;;;;;;15.40;34.23;72297.22;4989582;28;20031;-95
2021/04/11 01:54:57;;;;;;;33.47;21.20;;;;;;;15.11;33.87;72263.78;4969772;28;20093;-96
2021/04/11 01:57:28;;;;;;;30.13;22.55;;;;;;;15.61;34.47;72321.16;4974235;28;20026;-95
2021/04/11 02:00:12;;;;;;;28.27;22.95;;;;;;;15.94;34.67;72356.69;4978207;28;20019;-93
2021/04/11 02:02:41;;;;;;;32.40;21.30;;;;;;;15.27;32.86;72281.72;4978146;28;20058;-93
2021/04/11 02:05:14;;;;;;;29.38;20.63;;;;;;;16.00;32.52;72363.84;4975997;28;20027;-95
2021/04/11 02:07:44;;;;;;;32.72;20.73;;;;;;;15.58;33.29;72317.56;4956490;28;20031;-94
2021/04/11 02:10:20;;;;;;;27.67;22.38;;;;;;;15.02;32.82;72253.00;4962892;28;20039;-95
2021/04/11 02:12:48;;;;;;;34.38;21.50;;;;;;;15.26;32.63;72280.50;4988998;28;20042;-95
2021/04/11 02:15:24;;;;;;;28.33;20.48;;;;;;;16.11;33.19;72376.41;5005570;28;20026;-94
2021/04/11 02:17:57;;;;;;;28.13;19.23;;;;;;;16.09;30.02;72376.78;5004346;28;20034;-96
2021/04/11 02:20:27;;;;;;;25.63;17.40;;;;;;;14.30;29.29;72167.78;4989330;28;20966;-94
2021/04/11 02:22:56;;;;;;;30.27;19.08;;;;;;;16.12;28.72;72377.00;4994503;28;20037;-94
2021/04/11 02:25:31;;;;;;;31.02;19.17;;;;;;;14.88;29.97;72236.88;5009847;28;20030;-94
2021/04/11 02:28:02;;;;;;;25.88;17.65;;;;;;;15.11;29.24;72263.78;5021680;28;20026;-94
2021/04/11 02:30:29;;;;;;;29.85;19.05;;;;;;;16.04;30.13;72370.81;5022183;28;20049;-91
2021/04/11 02:32:58;;;;;;;27.50;18.08;;;;;;;15.92;29.60;72357.03;4998185;28;20022;-95
2021/04/11 02:35:31;;;;;;;29.92;17.75;;;;;;;15.07;29.75;72258.97;5002537;28;20038;-94
2021/04/11 02:38:03;;;;;;;28.23;17.85;;;;;;;16.00;29.54;72366.63;5001184;28;20022;-92
2021/04/11 02:40:37;;;;;;;29.58;19.20;;;;;;;16.06;28.90;72367.66;4996918;28;20057;-93
2021/04/11 02:43:08;;;;;;;29.25;20.98;;;;;;;15.31;29.63;72286.47;4988149;28;20035;-93
2021/04/11 02:45:38;;;;;;;33.63;21.38;;;;;;;15.80;30.53;72342.69;4992357;28;20042;-94
2021/04/11 02:48:10;;;;;;;34.45;22.17;;;;;;;16.23;29.97;72392.94;4992529;28;20023;-94
2021/04/11 02:50:41;;;;;;;38.78;25.83;;;;;;;15.97;30.92;72363.03;5009669;28;20039;-91
2021/04/11 02:53:24;;;;;;;40.05;23.75;;;;;;;16.39;31.94;72408.72;5009844;28;20014;-91
2021/04/11 02:55:54;;;;;;;32.03;20.38;;;;;;;16.35;31.80;72400.56;5016087;28;20045;-94
2021/04/11 02:58:23;;;;;;;39.50;22.48;;;;;;;16.50;31.49;72423.44;5015755;28;20120;-95
2021/04/11 03:00:56;;;;;;;33.78;21.33;;;;;;;16.99;30.35;72480.28;5005826;28;20030;-95
2021/04/11 03:03:23;;;;;;;34.95;18.95;;;;;;;14.76;27.71;72218.19;4998613;28;20018;-95
2021/04/11 03:05:51;;;;;;;25.77;17.65;;;;;;;16.43;28.76;72415.66;4971114;28;20038;-95
2021/04/11 03:08:22;;;;;;;30.45;18.77;;;;;;;15.68;29.98;72329.53;4996025;28;20041;-96
2021/04/11 03:11:27;;;;;;;35.63;21.55;;;;;;;16.14;30.47;72379.41;5005416;28;20048;-94
2021/04/11 03:13:58;;;;;;;29.92;21.00;;;;;;;15.04;31.33;72252.63;5007442;28;20023;-93
2021/04/11 03:16:26;;;;;;;33.75;22.63;;;;;;;15.93;31.13;72355.47;4973444;28;20037;-94
2021/04/11 03:19:00;;;;;;;34.78;22.23;;;;;;;16.28;31.44;72398.91;4997250;28;20098;-93
2021/04/11 03:21:27;;;;;;;32.35;22.58;;;;;;;15.66;32.26;72327.13;5025308;28;20068;-94
2021/04/11 03:23:56;;;;;;;40.83;26.13;;;;;;;17.09;32.09;72489.50;4993816;28;20065;-94
2021/04/11 03:26:40;;;;;;;35.63;23.88;;;;;;;17.02;32.65;72483.91;5005283;28;20579;-92
2021/04/11 03:29:25;;;;;;;38.28;24.05;;;;;;;17.29;31.95;72515.03;5000124;28;20053;-92
2021/04/11 03:32:19;;;;;;;39.30;25.65;;;;;;;17.05;32.46;72487.50;4979462;28;20065;-91
2021/04/11 03:34:54;;;;;;;34.13;23.60;;;;;;;17.32;32.21;72518.63;5004636;28;20044;-93
2021/04/11 03:37:25;;;;;;;38.83;25.40;;;;;;;17.48;31.57;72531.03;5018145;28;20017;-94
2021/04/11 03:39:53;;;;;;;34.85;23.85;;;;;;;17.36;32.47;72523.41;5032924;28;20036;-94
2021/04/11 03:42:28;;;;;;;36.45;24.25;;;;;;;16.71;32.00;72445.22;5030711;28;20042;-94
2021/04/11 03:44:59;;;;;;;34.72;23.98;;;;;;;16.01;32.73;72365.03;5012802;28;20061;-95
2021/04/11 03:47:44;;;;;;;36.80;24.58;;;;;;;16.93;32.52;72473.09;5006462;28;20021;-96
2021/04/11 03:50:32;;;;;;;46.20;27.00;;;;;;;17.15;34.15;72493.31;4997144;28;20025;-95
2021/04/11 03:53:08;;;;;;;37.65;26.33;;;;;;;17.41;34.38;72522.66;5021686;28;20026;-95
2021/04/11 03:55:40;;;;;;;43.53;29.83;;;;;;;16.80;33.51;72452.59;5003285;28;20065;-95
2021/04/11 03:58:16;;;;;;;42.80;27.17;;;;;;;17.02;33.70;72483.91;5004273;28;20022;-95
2021/04/11 04:00:56;;;;;;;39.90;27.10;;;;;;;16.71;32.99;72442.44;5003617;28;20022;-96
2021/04/11 04:03:31;;;;;;;39.88;27.38;;;;;;;16.96;33.46;72476.72;5003075;28;20045;-94
2021/04/11 04:06:10;;;;;;;41.33;27.13;;;;;;;14.77;33.46;72224.94;5016532;28;20073;-94
2021/04/11 04:08:40;;;;;;;38.70;26.63;;;;;;;16.79;32.94;72457.56;5005276;28;20021;-95
2021/04/11 04:11:44;;;;;;;42.60;28.98;;;;;;;16.86;34.18;72464.75;4992427;28;20037;-93
2021/04/11 04:14:17;;;;;;;49.67;29.55;;;;;;;16.99;33.74;72480.28;5027347;28;20044;-94
2021/04/11 04:17:19;;;;;;;41.67;25.33;;;;;;;17.31;33.29;72517.44;5013186;28;20033;-94
2021/04/11 04:20:04;;;;;;;45.80;29.65;;;;;;;17.10;34.85;72492.88;5012988;28;20097;-95
2021/04/11 04:22:37;;;;;;;49.47;33.33;;;;;;;17.26;34.46;72505.88;5026430;28;20022;-93
2021/04/11 04:25:12;;;;;;;42.63;30.35;;;;;;;17.48;34.49;72533.81;5035536;28;20062;-90
2021/04/11 04:28:11;;;;;;;51.33;33.63;;;;;;;17.41;34.37;72525.44;5037831;28;20030;-90
2021/04/11 04:30:57;;;;;;;47.90;31.48;;;;;;;17.17;34.90;72498.47;5020575;28;20014;-88
2021/04/11 04:34:04;;;;;;;51.05;32.80;;;;;;;17.26;35.04;72511.44;5035936;28;20101;-94
2021/04/11 04:36:40;;;;;;;47.08;33.70;;;;;;;17.17;35.13;72495.13;5026752;28;20034;-95
2021/04/11 04:39:44;;;;;;;54.30;37.28;;;;;;;17.10;35.84;72487.31;5023734;28;20097;-96
2021/04/11 04:42:27;;;;;;;53.33;35.95;;;;;;;16.14;36.54;72376.63;5024487;28;20113;-95
2021/04/11 04:45:02;;;;;;;49.20;35.08;;;;;;;17.36;36.33;72520.63;5021903;28;20031;-95
2021/04/11 04:47:42;;;;;;;57.53;33.17;;;;;;;15.57;37.04;72313.59;5000821;28;20479;-95
2021/04/11 04:50:27;;;;;;;53.95;31.98;;;;;;;16.70;37.43;72435.66;5012575;28;20037;-96
2021/04/11 04:53:32;;;;;;;50.67;32.45;;;;;;;17.26;37.58;72510.84;5036707;28;20018;-90
2021/04/11 04:56:05;;;;;;;46.13;32.53;;;;;;;16.33;36.92;72403.72;5019064;28;20045;-92
2021/04/11 04:58:45;;;;;;;46.55;30.95;;;;;;;16.76;37.34;72448.41;5019691;28;20034;-94
2021/04/11 05:01:26;;;;;;;45.50;29.65;;;;;;;15.05;37.47;72254.41;5018508;28;20044;-94
2021/04/11 05:04:02;;;;;;;48.40;31.90;;;;;;;16.73;37.43;72449.75;5011849;28;20010;-94
2021/04/11 05:06:44;;;;;;;43.53;30.38;;;;;;;15.55;36.69;72313.97;5003139;28;20018;-93
2021/04/11 05:09:47;;;;;;;56.25;31.65;;;;;;;17.12;37.07;72494.69;5035892;28;20022;-95
2021/04/11 05:12:20;;;;;;;38.80;27.98;;;;;;;17.71;36.37;72560.75;5025174;28;20014;-94
2021/04/11 05:15:14;;;;;;;50.33;30.17;;;;;;;16.37;36.64;72408.50;5019363;28;20018;-93
2021/04/11 05:18:13;;;;;;;50.97;31.92;;;;;;;16.46;37.24;72413.69;4990352;28;20038;-90
2021/04/11 05:20:45;;;;;;;43.08;27.80;;;;;;;17.17;37.14;72495.13;5018113;28;20053;-92
2021/04/11 05:23:29;;;;;;;49.28;30.55;;;;;;;17.36;37.94;72523.41;5035905;28;20034;-94
2021/04/11 05:26:13;;;;;;;46.63;27.10;;;;;;;16.60;36.15;72429.25;5009824;28;20042;-94
2021/04/11 05:29:14;;;;;;;41.17;28.45;;;;;;;17.28;36.70;72510.47;5011124;28;20010;-91
2021/04/11 05:31:46;;;;;;;40.47;26.85;;;;;;;14.88;35.82;72236.88;5015063;28;20098;-93
2021/04/11 05:34:20;;;;;;;43.25;28.67;;;;;;;16.24;35.74;72388.00;4997412;28;20034;-94
2021/04/11 05:37:02;;;;;;;41.95;25.45;;;;;;;17.02;35.73;72481.13;4997031;28;20070;-95
2021/04/11 05:39:36;;;;;;;39.92;24.27;;;;;;;17.21;35.20;72505.44;5013013;28;20034;-94
2021/04/11 05:42:27;;;;;;;41.38;23.45;;;;;;;17.23;35.12;72502.28;5018725;28;20021;-94
2021/04/11 05:45:30;;;;;;;36.35;23.80;;;;;;;17.39;35.10;72523.03;5019589;28;20025;-93
2021/04/11 05:48:28;;;;;;;36.60;21.00;;;;;;;17.29;34.38;72515.03;4996037;28;20062;-95
2021/04/11 05:51:16;;;;;;;34.55;21.35;;;;;;;17.15;33.37;72495.47;5016570;28;20192;-95
2021/04/11 05:53:50;;;;;;;29.33;19.25;;;;;;;17.07;33.54;72483.75;5012739;28;20058;-95
2021/04/11 05:56:38;;;;;;;33.35;20.42;;;;;;;14.90;33.77;72239.88;5011840;28;20026;-94
2021/04/11 05:59:25;;;;;;;27.95;17.63;;;;;;;16.22;34.38;72391.75;4998966;28;20017;-92
2021/04/11 06:01:57;;;;;;;;;;;;;;;17.44;35.28;72532.41;5019634;28;20102;-94
2021/04/11 06:04:42;;;;;;;32.35;18.83;;;;;;;17.60;35.49;72547.56;5017849;28;20438;-96
2021/04/11 06:07:25;;;;;;;30.58;21.05;;;;;;;16.31;36.28;72396.38;5066265;23;20023;-91
2021/04/11 06:10:22;;;;;;;33.03;19.13;;;;;;;15.74;36.44;72336.69;4991761;28;20043;-94
2021/04/11 06:13:10;;;;;;;42.95;21.10;;;;;;;17.35;36.67;72522.22;4968775;28;20051;-94
2021/04/11 06:15:46;;;;;;;29.20;19.95;;;;;;;15.72;35.80;72330.94;4973710;28;20078;-94
2021/04/11 06:18:15;;;;;;;37.63;19.42;;;;;;;17.40;36.18;72527.59;4991348;28;20018;-94
2021/04/11 06:20:49;;;;;;;35.00;19.30;;;;;;;16.57;35.12;72428.47;4976736;28;20050;-94
2021/04/11 06:23:50;;;;;;;42.45;20.92;;;;;;;16.21;35.48;72387.78;4993676;28;20027;-95
2021/04/11 06:27:04;;;;;;;32.38;20.23;;;;;;;17.62;34.33;72553.34;4977184;28;20058;-93
2021/04/11 06:29:43;;;;;;;29.65;18.08;;;;;;;17.37;34.62;72524.59;5129714;23;20021;-93
2021/04/11 06:32:14;;;;;;;32.30;17.97;;;;;;;17.20;32.91;72502.09;5069153;28;20036;-94
2021/04/11 06:34:59;;;;;;;32.28;19.52;;;;;;;16.63;33.39;72435.63;5090147;28;20032;-90
2021/04/11 06:37:28;;;;;;;29.25;17.90;;;;;;;17.27;33.67;72509.84;5081775;28;20084;-93
2021/04/11 06:39:57;;;;;;;42.97;18.65;;;;;;;17.40;30.53;72524.22;5098012;28;20029;-94
2021/04/11 06:42:27;;;;;;;24.58;19.48;;;;;;;17.86;31.24;72580.91;5098841;28;20104;-94
2021/04/11 06:48:59;;;;;;;34.67;15.70;;;;;;;17.38;31.62;72519.66;5083830;28;20028;-91
2021/04/11 06:51:43;;;;;;;22.73;14.48;;;;;;;17.09;30.07;72488.91;5092854;28;20098;-96
2021/04/11 06:54:38;;;;;;;26.48;15.73;;;;;;;17.85;30.49;72574.13;5081618;28;20036;-94
2021/04/11 06:57:29;;;;;;;20.52;14.30;;;;;;;17.62;29.83;72547.19;5081765;28;20027;-94
2021/04/11 07:00:26;;;;;;;28.48;14.98;;;;;;;17.91;31.15;72581.31;5095301;28;20029;-94
2021/04/11 07:03:47;;;;;;;32.47;16.20;;;;;;;16.58;32.64;72430.22;5096501;28;20023;-92
2021/04/11 07:06:43;;;;;;;37.08;16.85;;;;;;;17.88;32.02;72580.50;5074485;28;20030;-93
2021/04/11 07:09:47;;;;;;;25.55;16.10;;;;;;;18.04;32.08;72599.09;5053531;28;20009;-94
2021/04/11 07:12:48;;;;;;;29.48;18.33;;;;;;;18.11;34.08;72606.88;5075993;28;20044;-94
2021/04/11 07:15:52;;;;;;;30.42;16.50;;;;;;;17.18;34.10;72496.91;5071861;28;20024;-93
2021/04/11 07:18:53;;;;;;;27.13;16.13;;;;;;;17.67;33.89;72553.19;5075539;28;20056;-93
2021/04/11 07:21:45;;;;;;;22.98;14.57;;;;;;;17.65;33.07;72554.16;5083546;28;20037;-94
2021/04/11 07:24:48;;;;;;;27.05;13.98;;;;;;;17.26;31.94;72508.66;5077014;28;20040;-94
2021/04/11 07:27:26;;;;;;;28.13;14.43;;;;;;;17.12;35.21;72494.69;5059064;28;20029;-93
2021/04/11 07:30:23;;;;;;;38.20;14.50;;;;;;;16.89;32.63;72468.31;5066641;28;20103;-94
2021/04/11 07:33:08;;;;;;;28.23;13.57;;;;;;;16.90;29.91;72464.56;5074097;28;20037;-93
2021/04/11 07:36:18;;;;;;;26.85;13.55;;;;;;;16.22;29.83;72391.75;5076214;28;20019;-93
2021/04/11 07:38:52;;;;;;;25.50;15.30;;;;;;;17.04;31.32;72482.91;5076038;28;20016;-92
2021/04/11 07:41:25;;;;;;;29.80;13.75;;;;;;;17.02;32.56;72477.75;5075542;28;20084;-94
2021/04/11 07:44:16;;;;;;;30.38;16.30;;;;;;;16.79;34.02;72452.00;5071514;28;20024;-95
2021/04/11 07:47:22;;;;;;;35.50;14.93;;;;;;;16.95;34.68;72472.72;5068877;28;20043;-95
2021/04/11 07:50:25;;;;;;;25.35;14.18;;;;;;;16.13;34.95;72378.19;5068757;28;20054;-94
2021/04/11 07:53:32;;;;;;;25.38;16.58;;;;;;;15.16;35.11;72266.97;5070592;28;20441;-95
2021/04/11 07:56:27;;;;;;;33.28;14.73;;;;;;;16.94;35.13;72471.53;5072494;28;20052;-95
2021/04/11 07:59:34;;;;;;;30.85;16.90;;;;;;;16.34;34.73;72399.38;5070597;28;20074;-95
2021/04/11 08:02:25;;;;;;;23.10;15.50;;;;;;;17.08;34.89;72487.72;5056145;28;20013;-95
2021/04/11 08:05:20;;;;;;;26.30;14.25;;;;;;;16.94;35.00;72474.31;5070330;28;20064;-94
2021/04/11 08:08:24;;;;;;;22.55;14.27;;;;;;;16.94;35.07;72472.13;5078140;28;20107;-95
2021/04/11 08:11:12;;;;;;;31.90;14.35;;;;;;;16.91;34.81;72468.53;5042623;28;20016;-94
2021/04/11 08:14:06;;;;;;;31.92;14.15;;;;;;;16.82;35.03;72461.13;5078261;28;20099;-95
2021/04/11 08:17:08;;;;;;;26.55;14.05;;;;;;;15.73;34.61;72332.75;5078272;28;20024;-95
2021/04/11 08:19:56;;;;;;;34.17;14.63;;;;;;;16.34;33.04;72402.13;5064159;28;20033;-94
2021/04/11 08:23:00;;;;;;;22.13;12.25;;;;;;;16.78;30.45;72453.59;5092280;28;20021;-93
2021/04/11 08:26:17;;;;;;;25.35;12.18;;;;;;;16.74;30.36;72445.41;5072878;28;20033;-90
2021/04/11 08:28:53;;;;;;;19.15;11.38;;;;;;;16.88;30.49;72467.13;4934471;28;20028;-95
2021/04/11 08:31:51;;;;;;;37.47;12.52;;;;;;;16.91;30.98;72471.31;4932289;28;20032;-88
2021/04/11 08:34:56;;;;;;;27.58;12.30;;;;;;;16.82;30.43;72458.38;4963684;28;20027;-90
2021/04/11 08:40:43;;;;;;;22.25;10.80;;;;;;;16.91;31.41;72467.94;5095407;22;20056;-92
2021/04/11 08:43:58;;;;;;;23.88;10.82;;;;;;;15.65;31.24;72320.41;5072527;28;20068;-92
2021/04/11 08:47:00;;;;;;;23.52;12.65;;;;;;;16.77;31.05;72455.16;5058287;28;20060;-91
2021/04/11 08:49:46;;;;;;;22.38;11.25;;;;;;;14.48;31.81;72185.91;5048549;28;20146;-92
2021/04/11 08:52:50;;;;;;;20.95;10.70;;;;;;;15.83;31.53;72340.72;5061481;28;20028;-95
2021/04/11 08:56:09;;;;;;;20.20;11.32;;;;;;;16.63;32.49;72438.41;5085507;28;20032;-96
2021/04/11 08:58:40;;;;;;;24.20;11.30;;;;;;;16.45;32.89;72415.28;5069541;28;20378;-96
2021/04/11 09:17:39;;;;;;;25.33;10.80;;;;;;;16.24;33.66;72394.13;4638307;23;20054;-78
2021/04/11 09:20:12;;;;;;;21.73;9.88;;;;;;;16.24;32.71;72391.34;4978772;28;20038;-78
2021/04/11 09:22:49;;;;;;;25.63;10.77;;;;;;;16.17;33.61;72385.78;5010003;28;20526;-77
2021/04/11 09:25:32;;;;;;;25.20;11.98;;;;;;;15.57;33.73;72314.19;5014277;28;20057;-77
2021/04/11 09:28:05;;;;;;;29.27;10.65;;;;;;;16.17;33.27;72385.16;4995190;28;20080;-77
2021/04/11 09:30:51;;;;;;;22.67;9.77;;;;;;;16.04;33.61;72370.22;4991859;28;20052;-77
2021/04/11 09:33:41;;;;;;;24.30;9.43;;;;;;;15.97;32.94;72360.25;5013456;28;20033;-80
2021/04/11 09:36:49;;;;;;;26.33;10.32;;;;;;;15.87;32.43;72345.53;5003098;28;20061;-76
2021/04/11 09:39:45;;;;;;;20.50;10.65;;;;;;;15.45;32.76;72303.22;5020393;28;20490;-74
2021/04/11 09:42:28;;;;;;;20.58;9.10;;;;;;;15.92;32.70;72357.03;5023611;28;20041;-77
2021/04/11 09:45:25;;;;;;;23.17;8.80;;;;;;;15.78;31.39;72334.75;5032920;28;20034;-76
2021/04/11 09:48:11;;;;;;;21.20;8.40;;;;;;;15.70;32.53;72331.91;4993121;28;20043;-74
2021/04/11 09:50:38;;;;;;;22.85;10.32;;;;;;;15.70;32.46;72326.38;5031442;28;20030;-75
2021/04/11 09:53:21;;;;;;;21.55;10.32;;;;;;;14.17;32.96;72155.00;5032464;28;20032;-75
2021/04/11 09:56:30;;;;;;;28.08;11.32;;;;;;;15.58;32.40;72314.81;5021258;28;20382;-73
2021/04/11 09:59:33;;;;;;;28.80;11.65;;;;;;;15.64;32.44;72321.97;4993564;28;20041;-74
2021/04/11 10:02:30;;;;;;;23.65;11.52;;;;;;;15.66;32.62;72327.13;5031909;28;20159;-73
2021/04/11 10:05:03;;;;;;;18.40;11.20;;;;;;;15.59;32.48;72316.00;5033494;28;20021;-74
2021/04/11 10:07:40;;;;;;;24.60;10.07;;;;;;;13.76;32.11;72107.81;5015292;28;20031;-74
2021/04/11 10:10:19;;;;;;;19.20;9.52;;;;;;;13.38;32.65;72061.47;5015818;28;20064;-79
2021/04/11 10:13:08;;;;;;;19.00;10.48;;;;;;;15.56;32.35;72313.00;5032147;28;20064;-80
2021/04/11 10:15:53;;;;;;;22.33;10.02;;;;;;;15.51;32.18;72309.19;5032296;28;20034;-77
2021/04/11 10:18:51;;;;;;;24.00;9.15;;;;;;;15.50;32.59;72305.25;5012753;28;20418;-78
2021/04/11 10:21:54;;;;;;;26.50;10.70;;;;;;;15.45;32.75;72303.22;5017020;28;20064;-83
2021/04/11 10:24:41;;;;;;;17.75;8.52;;;;;;;14.02;31.24;72129.97;5011802;28;20625;-78
2021/04/11 10:27:27;;;;;;;19.35;10.05;;;;;;;15.56;30.25;72310.22;5032551;28;20032;-79
2021/04/11 10:30:00;;;;;;;25.52;9.45;;;;;;;15.56;29.92;72310.22;5028010;28;20041;-79
2021/04/11 10:32:38;;;;;;;26.27;9.45;;;;;;;15.46;30.09;72301.63;5027424;28;20030;-77
2021/04/11 10:35:11;;;;;;;17.00;9.20;;;;;;;15.48;30.12;72300.06;5033185;28;20029;-79
2021/04/11 10:37:46;;;;;;;24.92;10.60;;;;;;;13.72;29.05;72103.63;5004863;28;20040;-77
2021/04/11 10:40:52;;;;;;;32.80;9.65;;;;;;;13.37;28.31;72060.28;5031819;28;20021;-77
2021/04/11 10:43:56;;;;;;;32.33;10.02;;;;;;;13.35;28.25;72060.63;5022794;28;20041;-79
2021/04/11 10:46:55;;;;;;;19.65;9.73;;;;;;;13.09;28.69;72028.03;5019398;28;20828;-76
2021/04/11 10:49:37;;;;;;;22.70;9.57;;;;;;;13.60;28.83;72089.91;5017839;28;20041;-77
2021/04/11 10:52:32;;;;;;;20.33;10.48;;;;;;;15.56;29.13;72315.78;5031042;28;20061;-76
2021/04/11 10:55:24;;;;;;;18.88;8.38;;;;;;;15.59;29.37;72313.22;5015712;28;20556;-77
2021/04/11 10:58:19;;;;;;;26.45;11.38;;;;;;;15.68;29.61;72329.53;5014912;28;20034;-77
2021/04/11 11:01:09;;;;;;;24.00;10.80;;;;;;;14.08;30.17;72144.84;5010794;28;20051;-76
2021/04/11 11:04:11;;;;;;;29.30;11.80;;;;;;;14.89;30.58;72235.91;5031535;28;20033;-77
2021/04/11 11:07:02;;;;;;;31.98;12.73;;;;;;;15.60;30.24;72317.19;5027665;28;20452;-78
2021/04/11 11:09:56;;;;;;;31.10;14.50;;;;;;;15.58;30.74;72312.03;5030903;28;20040;-77
2021/04/11 11:12:55;;;;;;;24.75;14.68;;;;;;;15.54;31.09;72310.00;5023974;28;20158;-77
2021/04/11 11:16:12;;;;;;;26.65;15.10;;;;;;;13.70;31.14;72095.72;5033388;28;20399;-77
2021/04/11 11:19:00;;;;;;;26.25;16.05;;;;;;;15.53;31.29;72308.81;5024765;28;20042;-78
2021/04/11 11:21:48;;;;;;;31.75;15.55;;;;;;;15.56;31.14;72309.63;5027485;28;20440;-78
2021/04/11 11:24:28;;;;;;;24.38;15.82;;;;;;;15.52;31.83;72304.84;5032127;28;20018;-78
2021/04/11 11:27:07;;;;;;;33.28;17.52;;;;;;;15.58;32.05;72312.03;5014471;28;20031;-80
2021/04/11 11:30:02;;;;;;;37.38;16.33;;;;;;;15.44;32.17;72302.03;5008673;28;20042;-76
2021/04/11 11:32:37;;;;;;;39.17;16.88;;;;;;;15.64;32.31;72321.97;5023414;28;20061;-77
2021/04/11 11:35:14;;;;;;;40.13;17.55;;;;;;;14.23;32.96;72159.41;5025392;28;20398;-75
2021/04/11 11:37:54;;;;;;;26.00;16.77;;;;;;;15.25;33.09;72276.53;5012798;28;20022;-76
2021/04/11 11:40:33;;;;;;;33.67;19.80;;;;;;;15.56;32.74;72313.00;5026288;28;20029;-78
2021/04/11 11:43:20;;;;;;;36.67;18.75;;;;;;;15.21;33.00;72274.53;5004136;28;20030;-78
2021/04/11 11:45:53;;;;;;;39.08;17.83;;;;;;;15.46;33.37;72301.63;5025438;28;20014;-77
2021/04/11 11:48:49;;;;;;;29.70;17.55;;;;;;;14.80;33.36;72227.91;5030343;28;20430;-77
2021/04/11 11:51:52;;;;;;;34.10;18.42;;;;;;;15.56;33.94;72315.78;5034465;28;20171;-77
2021/04/11 11:54:22;;;;;;;36.25;19.85;;;;;;;15.54;34.19;72312.78;5034685;28;20033;-77
2021/04/11 11:57:10;;;;;;;31.80;18.17;;;;;;;15.51;34.45;72309.19;5035973;28;20506;-77
2021/04/11 12:00:03;;;;;;;27.98;18.50;;;;;;;15.29;34.68;72284.09;5039977;28;20030;-78
2021/04/11 12:02:35;;;;;;;45.97;18.65;;;;;;;15.51;34.87;72309.19;5028087;28;20040;-78
2021/04/11 12:05:25;;;;;;;31.25;17.80;;;;;;;15.52;35.96;72310.41;5009026;28;20101;-86
2021/04/11 12:08:08;;;;;;;39.20;19.80;;;;;;;15.55;35.77;72311.81;5020103;28;20033;-88
2021/04/11 12:11:01;;;;;;;34.85;18.83;;;;;;;14.64;35.77;72204.41;5018918;28;20033;-87
2021/04/11 12:13:37;;;;;;;40.72;18.15;;;;;;;15.51;36.07;72309.19;5013258;28;20075;-87
2021/04/11 12:16:22;;;;;;;34.05;17.23;;;;;;;15.54;36.38;72312.78;5005563;28;20033;-89
2021/04/11 12:19:27;;;;;;;35.00;15.93;;;;;;;15.48;36.64;72305.59;5027310;28;20026;-89
2021/04/11 12:22:19;;;;;;;36.63;18.98;;;;;;;15.36;37.30;72292.47;5022286;28;20071;-92
2021/04/11 12:24:53;;;;;;;28.20;16.73;;;;;;;14.88;37.70;72236.88;5024556;28;20056;-86
2021/04/11 12:27:39;;;;;;;29.88;16.48;;;;;;;15.36;38.05;72289.09;5015374;28;20033;-87
2021/04/11 12:30:14;;;;;;;30.02;17.63;;;;;;;15.55;37.87;72313.97;5017187;28;20027;-87
2021/04/11 12:32:53;;;;;;;27.30;18.33;;;;;;;15.51;38.02;72309.78;5003049;28;20045;-86
2021/04/11 12:35:24;;;;;;;30.50;17.90;;;;;;;15.46;38.46;72301.63;5026387;28;20032;-87
2021/04/11 12:38:14;;;;;;;26.30;18.58;;;;;;;14.06;38.44;72143.06;5002377;28;20276;-88
2021/04/11 12:41:06;;;;;;;31.30;16.70;;;;;;;15.31;39.08;72283.72;5028408;28;20021;-83
2021/04/11 12:43:59;;;;;;;25.83;19.08;;;;;;;15.33;39.03;72288.88;5028024;28;20069;-84
2021/04/11 12:46:51;;;;;;;31.88;15.43;;;;;;;15.36;39.72;72292.47;5004591;28;20034;-84
2021/04/11 12:49:30;;;;;;;38.00;18.08;;;;;;;15.31;39.88;72283.72;5029649;28;20052;-84
2021/04/11 12:52:14;;;;;;;36.88;17.42;;;;;;;15.24;40.71;72275.34;5018963;28;20501;-84
2021/04/11 12:55:04;;;;;;;34.20;16.75;;;;;;;15.00;40.39;72248.47;5016766;28;20035;-85